Time;durP1;ratioP1;P1;durP2;ratioP2;P2;SDS_P1;SDS_P2;PMS_P1;PMS_P2;Temp;Humidity;BMP_temperature;BMP_pressure;BME280_temperature;BME280_humidity;BME280_pressure;Samples;Min_cycle;Max_cycle;Signal;HPM_P1;HPM_P2
2022/03/23 00:00:26;;;;;;;16.88;12.00;;;3.60;97.30;;;;;;5023278;28;20030;-77
2022/03/23 00:02:52;;;;;;;14.15;11.93;;;3.70;97.70;;;;;;5035765;28;20022;-77
2022/03/23 00:05:18;;;;;;;15.02;13.43;;;3.50;99.20;;;;;;5015005;28;20502;-77
2022/03/23 00:07:44;;;;;;;14.02;12.40;;;3.30;99.30;;;;;;5011368;28;20022;-78
2022/03/23 00:10:10;;;;;;;15.52;12.43;;;3.40;99.30;;;;;;5018316;28;20033;-77
2022/03/23 00:12:36;;;;;;;13.50;11.35;;;3.40;99.40;;;;;;5034320;28;20052;-78
2022/03/23 00:15:02;;;;;;;13.35;11.95;;;3.30;99.90;;;;;;5002808;28;20022;-78
2022/03/23 00:17:28;;;;;;;13.88;12.32;;;3.20;99.90;;;;;;5028060;28;20029;-77
2022/03/23 00:19:54;;;;;;;13.02;11.73;;;3.10;99.90;;;;;;5025105;28;20087;-77
2022/03/23 00:22:20;;;;;;;14.23;11.52;;;3.10;99.90;;;;;;5025075;28;20018;-77
2022/03/23 00:24:46;;;;;;;14.00;12.02;;;2.90;99.90;;;;;;5024670;28;20463;-76
2022/03/23 00:27:12;;;;;;;13.30;11.85;;;3.10;99.90;;;;;;5016105;28;20120;-76
2022/03/23 00:29:38;;;;;;;13.80;12.00;;;3.10;99.90;;;;;;5024769;28;20032;-77
2022/03/23 00:32:05;;;;;;;15.40;11.35;;;3.00;99.90;;;;;;5031819;28;20030;-77
2022/03/23 00:34:30;;;;;;;14.45;12.38;;;3.00;99.90;;;;;;5016465;28;20076;-77
2022/03/23 00:36:56;;;;;;;12.15;10.75;;;3.00;99.90;;;;;;5034981;28;20018;-77
2022/03/23 00:39:22;;;;;;;15.00;11.88;;;3.00;99.90;;;;;;5003517;28;20052;-77
2022/03/23 00:41:50;;;;;;;13.02;11.43;;;3.00;99.90;;;;;;5001829;28;20030;-75
2022/03/23 00:44:16;;;;;;;14.85;11.00;;;3.10;99.90;;;;;;5020608;28;20075;-77
2022/03/23 00:46:42;;;;;;;13.82;11.63;;;3.00;99.90;;;;;;5033247;28;20356;-75
2022/03/23 00:49:09;;;;;;;13.77;11.15;;;3.00;99.90;;;;;;5015022;28;20061;-75
2022/03/23 00:51:35;;;;;;;13.15;11.57;;;2.90;99.90;;;;;;5027671;28;20468;-75
2022/03/23 00:54:00;;;;;;;15.40;12.02;;;2.70;99.90;;;;;;5025445;28;20036;-75
2022/03/23 00:56:26;;;;;;;13.32;11.52;;;2.60;99.90;;;;;;5027138;28;20026;-75
2022/03/23 00:58:52;;;;;;;13.00;11.55;;;2.50;99.90;;;;;;5026297;28;20022;-76
2022/03/23 01:01:17;;;;;;;14.15;12.30;;;2.50;99.90;;;;;;5017375;28;20036;-77
2022/03/23 01:03:43;;;;;;;14.30;12.32;;;2.60;99.90;;;;;;5011271;28;20036;-75
2022/03/23 01:06:08;;;;;;;12.98;11.60;;;2.60;99.90;;;;;;5021836;28;20025;-75
2022/03/23 01:08:34;;;;;;;13.50;12.10;;;2.30;99.90;;;;;;5007922;28;20026;-75
2022/03/23 01:11:01;;;;;;;15.13;12.80;;;2.40;99.90;;;;;;5008248;28;20033;-76
2022/03/23 01:13:27;;;;;;;12.90;11.60;;;2.30;99.90;;;;;;5023660;28;20021;-77
2022/03/23 01:15:52;;;;;;;16.83;12.50;;;2.30;99.90;;;;;;5031668;28;20113;-77
2022/03/23 01:18:18;;;;;;;13.85;12.10;;;2.30;99.90;;;;;;5029027;28;20434;-77
2022/03/23 01:20:43;;;;;;;15.27;12.73;;;2.10;99.90;;;;;;5028159;28;20021;-76
2022/03/23 01:23:09;;;;;;;14.02;12.52;;;2.20;99.90;;;;;;5004263;28;20031;-76
2022/03/23 01:25:35;;;;;;;15.60;12.93;;;2.30;99.90;;;;;;5016626;28;20479;-77
2022/03/23 01:28:00;;;;;;;14.52;12.13;;;2.20;99.90;;;;;;5013303;28;20065;-76
2022/03/23 01:30:26;;;;;;;14.35;12.85;;;2.30;99.90;;;;;;5008264;28;20022;-76
2022/03/23 01:32:52;;;;;;;14.90;12.23;;;2.30;99.90;;;;;;5025249;28;20103;-77
2022/03/23 01:35:18;;;;;;;13.90;12.20;;;2.10;99.90;;;;;;5008220;28;20223;-76
2022/03/23 01:37:43;;;;;;;14.05;12.35;;;2.00;99.90;;;;;;5026360;28;20064;-76
2022/03/23 01:40:11;;;;;;;13.00;11.63;;;2.10;99.90;;;;;;5014353;28;20104;-76
2022/03/23 01:42:38;;;;;;;16.42;12.70;;;2.00;99.90;;;;;;5011294;28;20033;-76
2022/03/23 01:45:08;;;;;;;14.10;12.60;;;2.00;99.90;;;;;;5014083;28;20053;-76
2022/03/23 01:47:34;;;;;;;14.40;12.73;;;2.00;99.90;;;;;;5019859;28;20022;-76
2022/03/23 01:50:00;;;;;;;14.60;12.30;;;2.10;99.90;;;;;;5000597;28;20404;-75
2022/03/23 01:52:29;;;;;;;16.15;12.75;;;1.90;99.90;;;;;;5022146;28;20064;-77
2022/03/23 01:54:55;;;;;;;14.07;12.57;;;2.00;99.90;;;;;;5003340;28;20018;-77
2022/03/23 01:57:22;;;;;;;14.25;12.40;;;2.20;99.90;;;;;;5006283;28;20026;-75
2022/03/23 01:59:49;;;;;;;13.90;12.35;;;2.30;99.90;;;;;;5019816;28;20022;-75
2022/03/23 02:02:15;;;;;;;13.55;11.77;;;2.30;99.90;;;;;;5023368;28;20026;-75
2022/03/23 02:04:41;;;;;;;14.65;13.15;;;2.20;99.90;;;;;;5025626;28;20018;-75
2022/03/23 02:07:07;;;;;;;16.13;13.38;;;2.10;99.90;;;;;;5020141;28;20033;-75
2022/03/23 02:09:33;;;;;;;16.98;13.40;;;2.00;99.90;;;;;;5000821;28;20120;-74
2022/03/23 02:12:02;;;;;;;15.40;12.55;;;2.00;99.90;;;;;;5006074;28;20069;-74
2022/03/23 02:14:27;;;;;;;14.45;12.95;;;2.00;99.90;;;;;;4996157;28;20029;-74
2022/03/23 02:16:53;;;;;;;16.48;13.15;;;1.60;99.90;;;;;;5031966;28;20025;-75
2022/03/23 02:19:21;;;;;;;16.00;13.07;;;1.70;99.90;;;;;;5018483;28;20069;-76
2022/03/23 02:21:54;;;;;;;15.07;13.23;;;1.60;99.90;;;;;;5005709;28;20388;-76
2022/03/23 02:24:23;;;;;;;15.23;13.45;;;1.50;99.90;;;;;;5030462;28;20094;-77
2022/03/23 02:26:49;;;;;;;15.88;13.65;;;1.50;99.90;;;;;;5032416;28;20394;-76
2022/03/23 02:29:15;;;;;;;17.23;13.20;;;1.50;99.90;;;;;;5028045;28;20399;-76
2022/03/23 02:31:41;;;;;;;16.02;13.02;;;1.40;99.90;;;;;;5006327;28;20034;-76
2022/03/23 02:34:07;;;;;;;15.52;13.55;;;1.40;99.90;;;;;;5004667;28;20029;-76
2022/03/23 02:36:33;;;;;;;14.77;12.70;;;1.30;99.90;;;;;;5025069;28;20022;-75
2022/03/23 02:38:58;;;;;;;13.93;12.52;;;1.20;99.90;;;;;;5028863;28;20032;-76
2022/03/23 02:41:24;;;;;;;14.45;12.38;;;1.30;99.90;;;;;;5025940;28;20077;-77
2022/03/23 02:43:50;;;;;;;15.05;13.07;;;1.30;99.90;;;;;;5032827;28;20029;-77
2022/03/23 02:46:17;;;;;;;15.00;13.07;;;1.10;99.90;;;;;;5028353;28;20028;-75
2022/03/23 02:48:44;;;;;;;16.92;13.98;;;1.20;99.90;;;;;;5032580;28;20030;-77
2022/03/23 02:51:09;;;;;;;15.23;11.98;;;1.10;99.90;;;;;;5025887;28;20026;-76
2022/03/23 03:02:22;;;;;;;14.75;13.25;;;1.00;99.90;;;;;;5022206;28;20032;-76
2022/03/23 03:04:49;;;;;;;14.40;12.82;;;0.90;99.90;;;;;;5003848;28;20025;-76
2022/03/23 03:07:15;;;;;;;14.65;12.52;;;0.90;99.90;;;;;;5025369;28;20045;-76
2022/03/23 03:09:40;;;;;;;15.93;13.82;;;1.00;99.90;;;;;;5028246;28;20108;-77
2022/03/23 03:12:07;;;;;;;15.20;13.35;;;0.90;99.90;;;;;;5024019;28;20097;-77
2022/03/23 03:14:33;;;;;;;16.02;13.63;;;0.90;99.90;;;;;;5030172;28;20431;-78
2022/03/23 03:16:59;;;;;;;14.85;13.13;;;0.80;99.90;;;;;;5013298;28;20069;-76
2022/03/23 03:19:24;;;;;;;14.10;12.40;;;0.70;99.90;;;;;;5021406;28;20049;-75
2022/03/23 03:21:50;;;;;;;14.73;13.15;;;0.80;99.90;;;;;;5034399;28;20030;-76
2022/03/23 03:24:16;;;;;;;14.65;13.05;;;0.70;99.90;;;;;;5021676;28;20457;-77
2022/03/23 03:26:41;;;;;;;14.75;13.25;;;0.70;99.90;;;;;;5008523;28;20060;-77
2022/03/23 03:29:07;;;;;;;15.10;12.80;;;0.70;99.90;;;;;;5018995;28;20082;-77
2022/03/23 03:31:33;;;;;;;15.75;13.02;;;0.60;99.90;;;;;;5043273;28;20111;-76
2022/03/23 03:33:59;;;;;;;15.35;13.60;;;0.70;99.90;;;;;;5050005;23;20037;-73
2022/03/23 03:36:24;;;;;;;16.58;13.82;;;0.60;99.90;;;;;;5029030;28;20030;-73
2022/03/23 03:38:50;;;;;;;14.68;13.05;;;0.70;99.90;;;;;;5047398;28;20022;-73
2022/03/23 03:41:16;;;;;;;15.38;13.77;;;0.60;99.90;;;;;;5053930;28;20386;-73
2022/03/23 03:43:43;;;;;;;14.90;13.20;;;0.60;99.90;;;;;;5036413;28;20021;-73
2022/03/23 03:46:10;;;;;;;14.50;12.98;;;0.60;99.90;;;;;;5034214;28;20030;-74
2022/03/23 03:48:36;;;;;;;14.38;12.63;;;0.50;99.90;;;;;;5016267;28;20494;-73
2022/03/23 03:51:03;;;;;;;14.80;12.90;;;0.60;99.90;;;;;;5016084;28;20025;-72
2022/03/23 03:53:28;;;;;;;17.05;14.23;;;0.60;99.90;;;;;;5023238;28;20038;-73
2022/03/23 03:55:54;;;;;;;15.70;13.48;;;0.60;99.90;;;;;;5033961;28;20037;-74
2022/03/23 03:58:20;;;;;;;15.20;13.57;;;0.60;99.90;;;;;;5033937;28;20482;-73
2022/03/23 04:00:46;;;;;;;16.35;13.80;;;0.60;99.90;;;;;;5033714;28;20030;-74
2022/03/23 04:03:12;;;;;;;16.20;13.32;;;0.50;99.90;;;;;;5033773;28;20086;-74
2022/03/23 04:05:38;;;;;;;16.30;13.65;;;0.50;99.90;;;;;;5015952;28;20025;-73
2022/03/23 04:08:04;;;;;;;15.68;13.63;;;0.60;99.90;;;;;;5033774;28;20029;-73
2022/03/23 04:10:29;;;;;;;15.88;14.18;;;0.50;99.90;;;;;;5033372;28;20029;-73
2022/03/23 04:12:56;;;;;;;15.48;13.88;;;0.30;99.90;;;;;;5033462;28;20041;-72
2022/03/23 04:15:24;;;;;;;15.60;13.60;;;0.30;99.90;;;;;;5015824;28;20483;-72
2022/03/23 04:17:49;;;;;;;19.52;14.57;;;0.20;99.90;;;;;;5020024;28;20033;-73
2022/03/23 04:20:15;;;;;;;17.60;14.65;;;0.30;99.90;;;;;;5024091;28;20026;-73
2022/03/23 04:22:41;;;;;;;17.90;14.52;;;0.20;99.90;;;;;;5026792;28;20033;-73
2022/03/23 04:25:08;;;;;;;16.35;14.32;;;0.20;99.90;;;;;;5032856;28;20445;-73
2022/03/23 04:27:36;;;;;;;21.15;15.40;;;0.10;99.90;;;;;;5030538;28;20057;-72
2022/03/23 04:30:02;;;;;;;17.52;15.70;;;0.10;99.90;;;;;;5015287;28;20017;-74
2022/03/23 04:32:28;;;;;;;17.08;14.75;;;0.10;99.90;;;;;;5032894;28;20029;-74
2022/03/23 04:34:53;;;;;;;17.25;15.45;;;0.00;99.90;;;;;;5033516;28;20041;-74
2022/03/23 04:37:19;;;;;;;16.77;14.95;;;0.00;99.90;;;;;;5033728;28;20033;-74
2022/03/23 04:39:44;;;;;;;17.90;15.82;;;0.00;99.90;;;;;;5015368;28;20023;-73
2022/03/23 04:42:10;;;;;;;19.13;16.92;;;0.00;99.90;;;;;;5015228;28;20018;-73
2022/03/23 04:44:35;;;;;;;20.75;18.05;;;0.10;99.90;;;;;;5032889;28;20089;-72
2022/03/23 04:47:01;;;;;;;18.30;16.35;;;0.10;99.90;;;;;;5032870;28;20479;-72
2022/03/23 04:49:27;;;;;;;18.05;15.75;;;0.10;99.90;;;;;;5032932;28;20029;-73
2022/03/23 04:51:52;;;;;;;17.08;14.88;;;0.00;99.90;;;;;;5032661;28;20022;-73
2022/03/23 04:54:18;;;;;;;16.67;14.85;;;0.10;99.90;;;;;;5014759;28;20053;-72
2022/03/23 04:56:43;;;;;;;18.58;15.43;;;0.00;99.90;;;;;;5032663;28;20072;-73
2022/03/23 04:59:09;;;;;;;18.38;15.00;;;0.00;99.90;;;;;;5023521;28;20419;-73
2022/03/23 05:01:34;;;;;;;19.25;15.13;;;0.00;99.90;;;;;;5029975;28;20463;-73
2022/03/23 05:04:00;;;;;;;18.10;15.38;;;0.00;99.90;;;;;;5023187;28;20040;-74
2022/03/23 05:06:26;;;;;;;15.98;14.18;;;-0.10;99.90;;;;;;5028977;28;20070;-73
2022/03/23 05:08:51;;;;;;;19.05;15.23;;;-0.10;99.90;;;;;;5023465;28;20034;-74
2022/03/23 05:11:17;;;;;;;19.13;16.33;;;-0.10;99.90;;;;;;5025534;28;20033;-73
2022/03/23 05:13:42;;;;;;;16.80;15.00;;;-0.20;99.90;;;;;;5031902;28;20386;-72
2022/03/23 05:16:08;;;;;;;19.30;15.75;;;-0.30;99.90;;;;;;5032214;28;20672;-73
2022/03/23 05:18:33;;;;;;;17.80;15.20;;;-0.30;99.90;;;;;;5032393;28;20499;-74
2022/03/23 05:20:59;;;;;;;22.17;16.90;;;-0.40;99.90;;;;;;5032158;28;20097;-73
2022/03/23 05:23:24;;;;;;;18.40;16.30;;;-0.40;99.90;;;;;;5032148;28;20475;-73
2022/03/23 05:25:50;;;;;;;18.70;16.50;;;-0.30;99.90;;;;;;5014433;28;20028;-73
2022/03/23 05:28:15;;;;;;;19.33;16.70;;;-0.30;99.90;;;;;;5014584;28;20441;-73
2022/03/23 05:30:41;;;;;;;18.52;15.30;;;-0.30;99.90;;;;;;5031996;28;20080;-75
2022/03/23 05:33:06;;;;;;;19.90;16.17;;;-0.30;99.90;;;;;;5032003;28;20487;-75
2022/03/23 05:35:32;;;;;;;18.63;15.50;;;-0.30;99.90;;;;;;5014566;28;20024;-74
2022/03/23 05:37:58;;;;;;;20.67;16.80;;;-0.30;99.90;;;;;;5032078;28;20033;-76
2022/03/23 05:40:23;;;;;;;18.75;16.40;;;-0.30;99.90;;;;;;5031880;28;20087;-74
2022/03/23 05:42:49;;;;;;;21.13;17.50;;;-0.30;99.90;;;;;;5031966;28;20041;-75
2022/03/23 05:45:16;;;;;;;19.52;16.35;;;-0.30;99.90;;;;;;5014615;28;20394;-75
2022/03/23 05:47:41;;;;;;;17.88;15.98;;;-0.30;99.90;;;;;;5032091;28;20029;-75
2022/03/23 05:50:08;;;;;;;18.17;16.00;;;-0.30;99.90;;;;;;5031977;28;20033;-75
2022/03/23 05:52:35;;;;;;;23.52;16.73;;;-0.40;99.90;;;;;;5031654;28;20069;-75
2022/03/23 05:55:05;;;;;;;20.75;16.80;;;-0.40;99.90;;;;;;5014260;28;20433;-74
2022/03/23 05:57:31;;;;;;;21.13;18.08;;;-0.30;99.90;;;;;;5031920;28;20018;-74
2022/03/23 05:59:56;;;;;;;22.50;18.58;;;-0.10;99.90;;;;;;5031540;28;20502;-73
2022/03/23 06:02:22;;;;;;;29.67;19.65;;;0.00;99.90;;;;;;5031642;28;20034;-73
2022/03/23 06:04:47;;;;;;;32.42;24.08;;;0.10;99.90;;;;;;5000954;28;20018;-74
2022/03/23 06:07:13;;;;;;;38.72;26.88;;;0.30;99.90;;;;;;5004112;28;20180;-73
2022/03/23 06:09:39;;;;;;;28.17;22.48;;;0.30;99.90;;;;;;5025149;28;20045;-74
2022/03/23 06:12:05;;;;;;;24.63;17.85;;;0.20;99.90;;;;;;5003644;28;20029;-74
2022/03/23 06:14:32;;;;;;;25.58;18.67;;;0.40;99.90;;;;;;5018445;28;20479;-73
2022/03/23 06:16:58;;;;;;;26.35;20.58;;;0.50;99.90;;;;;;5021793;28;20029;-71
2022/03/23 06:19:23;;;;;;;24.45;20.20;;;0.50;99.90;;;;;;5028256;28;20026;-74
2022/03/23 06:21:49;;;;;;;24.95;19.95;;;0.70;99.90;;;;;;5021754;28;20026;-74
2022/03/23 06:24:14;;;;;;;24.00;20.55;;;0.80;99.90;;;;;;5027835;28;20083;-73
2022/03/23 06:26:40;;;;;;;23.27;19.30;;;0.90;99.90;;;;;;5031686;28;20029;-74
2022/03/23 06:29:06;;;;;;;22.55;19.15;;;1.00;99.90;;;;;;5031556;28;20491;-73
2022/03/23 06:31:31;;;;;;;22.92;18.90;;;1.00;99.90;;;;;;5013884;28;20574;-74
2022/03/23 06:33:57;;;;;;;24.20;19.95;;;1.20;99.90;;;;;;5028156;28;20116;-73
2022/03/23 06:36:22;;;;;;;21.15;18.88;;;1.10;99.90;;;;;;5013747;28;20014;-74
2022/03/23 06:38:50;;;;;;;27.38;19.27;;;1.10;99.90;;;;;;5000372;28;20103;-73
2022/03/23 06:41:15;;;;;;;24.38;21.17;;;1.30;99.90;;;;;;5013484;28;20022;-74
2022/03/23 06:43:41;;;;;;;23.83;21.33;;;1.30;99.90;;;;;;5017984;28;20037;-74
2022/03/23 06:46:07;;;;;;;24.00;20.42;;;1.40;99.90;;;;;;5031327;28;20079;-72
2022/03/23 06:48:32;;;;;;;25.80;19.27;;;1.40;99.90;;;;;;5031212;28;20434;-74
2022/03/23 06:50:58;;;;;;;26.27;20.83;;;1.50;99.90;;;;;;5013460;28;20052;-74
2022/03/23 06:53:24;;;;;;;24.63;20.10;;;1.70;99.90;;;;;;5031113;28;20056;-74
2022/03/23 06:55:49;;;;;;;22.52;19.42;;;1.70;99.90;;;;;;5013663;28;20522;-73
2022/03/23 06:58:15;;;;;;;21.98;19.40;;;1.90;99.90;;;;;;5012816;28;20048;-73
2022/03/23 07:00:40;;;;;;;23.13;18.80;;;1.80;99.90;;;;;;5030757;28;20099;-74
2022/03/23 07:03:06;;;;;;;20.08;17.92;;;1.90;99.90;;;;;;5031147;28;20594;-73
2022/03/23 07:05:34;;;;;;;19.33;17.30;;;1.90;99.90;;;;;;5013401;28;20033;-73
2022/03/23 07:10:44;;;;;;;20.70;18.45;;;2.00;99.90;;;;;;5019419;28;20037;-73
2022/03/23 07:13:10;;;;;;;20.40;17.85;;;2.20;99.90;;;;;;5016478;28;20025;-73
2022/03/23 07:15:36;;;;;;;22.88;17.27;;;2.40;99.90;;;;;;5031247;28;20022;-73
2022/03/23 07:18:01;;;;;;;19.52;17.50;;;2.40;99.90;;;;;;5013825;28;20045;-73
2022/03/23 07:20:27;;;;;;;20.48;18.30;;;2.50;99.90;;;;;;5026835;28;20018;-73
2022/03/23 07:22:53;;;;;;;21.35;18.17;;;2.60;99.90;;;;;;5024762;28;20032;-72
2022/03/23 07:25:18;;;;;;;20.80;18.48;;;2.80;99.90;;;;;;5032896;28;20112;-73
2022/03/23 07:27:44;;;;;;;20.17;17.80;;;2.90;99.90;;;;;;5034520;28;20033;-72
2022/03/23 07:30:10;;;;;;;19.77;17.65;;;3.00;99.90;;;;;;5034484;28;20033;-72
2022/03/23 07:32:38;;;;;;;21.10;18.00;;;3.10;99.90;;;;;;5034308;28;20033;-72
2022/03/23 07:35:04;;;;;;;20.35;17.38;;;3.20;99.90;;;;;;5034228;28;20426;-73
2022/03/23 07:37:31;;;;;;;20.13;16.85;;;3.30;99.90;;;;;;5034248;28;20104;-73
2022/03/23 07:39:56;;;;;;;21.40;16.83;;;3.50;99.90;;;;;;5016592;28;20509;-73
2022/03/23 07:42:22;;;;;;;21.13;16.50;;;3.60;99.90;;;;;;5034222;28;20057;-73
2022/03/23 07:44:47;;;;;;;18.90;16.90;;;3.70;99.90;;;;;;5016341;28;20372;-73
2022/03/23 07:47:15;;;;;;;20.13;17.02;;;3.70;99.90;;;;;;5016382;28;20367;-73
2022/03/23 07:49:42;;;;;;;19.67;17.55;;;3.80;99.90;;;;;;5034249;28;20383;-73
2022/03/23 07:52:09;;;;;;;23.58;18.45;;;3.90;99.90;;;;;;5033766;28;20033;-73
2022/03/23 07:54:34;;;;;;;18.77;16.80;;;4.00;99.90;;;;;;5016233;28;20144;-73
2022/03/23 07:57:00;;;;;;;21.83;17.80;;;4.20;99.90;;;;;;5016229;28;20108;-74
2022/03/23 07:59:26;;;;;;;19.45;17.35;;;4.20;99.90;;;;;;5016041;28;20025;-73
2022/03/23 08:01:51;;;;;;;23.45;18.90;;;4.50;99.90;;;;;;5033659;28;20034;-73
2022/03/23 08:04:16;;;;;;;20.75;18.35;;;4.50;99.90;;;;;;5033639;28;20111;-73
2022/03/23 08:06:42;;;;;;;21.13;18.25;;;4.60;99.90;;;;;;5033678;28;20131;-73
2022/03/23 08:09:08;;;;;;;20.25;18.08;;;4.70;99.90;;;;;;5033744;28;20025;-75
2022/03/23 08:11:34;;;;;;;19.85;17.85;;;4.80;99.90;;;;;;5033487;28;20053;-75
2022/03/23 08:13:59;;;;;;;22.83;19.27;;;4.80;99.90;;;;;;5015623;28;20057;-73
2022/03/23 08:16:25;;;;;;;23.30;18.50;;;4.90;99.90;;;;;;5033527;28;20030;-74
2022/03/23 08:18:54;;;;;;;23.35;17.77;;;5.00;99.90;;;;;;5033495;28;20030;-74
2022/03/23 08:21:21;;;;;;;19.33;17.27;;;5.10;99.90;;;;;;5015573;28;20494;-74
2022/03/23 08:23:47;;;;;;;19.98;16.45;;;5.30;99.90;;;;;;5015473;28;20043;-74
2022/03/23 08:26:14;;;;;;;18.98;16.90;;;5.50;99.90;;;;;;5033436;28;20029;-73
2022/03/23 08:28:43;;;;;;;18.65;16.30;;;5.50;99.90;;;;;;5032898;28;20021;-73
2022/03/23 08:31:10;;;;;;;19.40;15.88;;;5.70;99.90;;;;;;5015337;28;20025;-74
2022/03/23 08:33:36;;;;;;;17.73;15.48;;;5.80;99.90;;;;;;5015148;28;20029;-74
2022/03/23 08:36:03;;;;;;;18.95;15.50;;;6.10;99.90;;;;;;5015469;28;20025;-74
2022/03/23 08:38:28;;;;;;;19.05;16.85;;;6.30;99.90;;;;;;5033043;28;20044;-73
2022/03/23 08:40:54;;;;;;;18.92;16.15;;;6.50;99.90;;;;;;5032931;28;20395;-74
2022/03/23 08:43:19;;;;;;;18.33;16.35;;;6.50;99.90;;;;;;5032836;28;20078;-74
2022/03/23 08:45:45;;;;;;;20.35;16.15;;;6.60;99.90;;;;;;5032953;28;20061;-74
2022/03/23 08:48:11;;;;;;;18.48;16.58;;;6.60;99.90;;;;;;5032916;28;20078;-74
2022/03/23 08:50:37;;;;;;;20.27;16.83;;;6.70;99.90;;;;;;5032662;28;20468;-74
2022/03/23 08:53:04;;;;;;;19.00;16.27;;;6.80;99.90;;;;;;5014912;28;20514;-74
2022/03/23 08:55:30;;;;;;;23.30;17.23;;;7.10;99.90;;;;;;5032713;28;20028;-74
2022/03/23 08:57:56;;;;;;;20.05;16.55;;;7.10;99.90;;;;;;5015068;28;20419;-74
2022/03/23 09:00:22;;;;;;;20.88;17.20;;;7.40;99.90;;;;;;5032385;28;20026;-74
2022/03/23 09:02:47;;;;;;;23.48;16.77;;;7.40;99.90;;;;;;5032610;28;20155;-74
2022/03/23 09:05:14;;;;;;;19.25;16.98;;;7.40;99.90;;;;;;5032611;28;20437;-74
2022/03/23 09:07:43;;;;;;;18.60;16.58;;;7.50;99.90;;;;;;5032614;28;20022;-73
2022/03/23 09:10:11;;;;;;;21.02;17.83;;;7.50;99.90;;;;;;5019600;28;20037;-73
2022/03/23 09:12:37;;;;;;;22.50;17.98;;;7.70;99.90;;;;;;5032171;28;20152;-74
2022/03/23 09:15:05;;;;;;;20.50;17.95;;;7.70;99.90;;;;;;5014832;28;20746;-74
2022/03/23 09:17:31;;;;;;;22.15;16.80;;;7.70;99.90;;;;;;5032295;28;20018;-72
2022/03/23 09:19:57;;;;;;;23.08;17.98;;;7.90;99.90;;;;;;5014683;28;20017;-73
2022/03/23 09:22:22;;;;;;;24.42;17.40;;;8.10;99.90;;;;;;5032085;28;20041;-74
2022/03/23 09:24:48;;;;;;;24.17;17.35;;;8.30;99.90;;;;;;5032172;28;20467;-74
2022/03/23 09:27:14;;;;;;;20.35;17.48;;;8.30;99.90;;;;;;5032235;28;20046;-74
2022/03/23 09:29:40;;;;;;;20.30;16.02;;;8.60;99.90;;;;;;5032160;28;20021;-74
2022/03/23 09:32:10;;;;;;;22.85;18.55;;;8.80;99.90;;;;;;5031959;28;20570;-74
2022/03/23 09:34:36;;;;;;;20.67;17.05;;;8.70;99.90;;;;;;5014693;28;20039;-74
2022/03/23 09:39:46;;;;;;;20.48;17.40;;;9.10;99.90;;;;;;5031962;28;20513;-74
2022/03/23 09:42:12;;;;;;;21.85;17.25;;;9.10;99.90;;;;;;5013519;28;20025;-74
2022/03/23 09:44:39;;;;;;;21.30;16.83;;;9.30;99.90;;;;;;5031892;28;20026;-74
2022/03/23 09:47:06;;;;;;;23.00;17.23;;;9.30;99.90;;;;;;5014115;28;20021;-74
2022/03/23 09:49:31;;;;;;;22.38;17.42;;;9.40;99.90;;;;;;5021510;28;20384;-74
2022/03/23 09:51:59;;;;;;;21.10;16.90;;;9.40;99.90;;;;;;5010369;28;20037;-74
2022/03/23 09:54:24;;;;;;;22.33;17.02;;;9.50;99.90;;;;;;5004651;28;20030;-74
2022/03/23 09:56:50;;;;;;;22.52;17.55;;;9.60;99.90;;;;;;5018807;28;20025;-74
2022/03/23 09:59:16;;;;;;;21.38;16.63;;;9.80;99.90;;;;;;5031936;28;20040;-74
2022/03/23 10:02:01;;;;;;;21.00;16.80;;;10.00;99.90;;;;;;5027529;28;20034;-74
2022/03/23 10:04:52;;;;;;;20.42;16.08;;;10.10;99.90;;;;;;4994339;28;20034;-74
2022/03/23 10:07:23;;;;;;;21.15;15.75;;;10.20;99.90;;;;;;5004405;28;20037;-74
2022/03/23 10:10:43;;;;;;;22.63;15.63;;;10.70;99.90;;;;;;5031716;28;20104;-74
2022/03/23 10:13:46;;;;;;;18.38;14.98;;;10.80;99.10;;;;;;5013776;28;20455;-74
2022/03/23 10:16:49;;;;;;;18.75;14.98;;;10.90;99.90;;;;;;5031522;28;20029;-74
2022/03/23 10:19:15;;;;;;;18.67;13.77;;;10.80;98.30;;;;;;5031607;28;20030;-74
2022/03/23 10:21:40;;;;;;;17.00;13.80;;;10.90;96.40;;;;;;5013657;28;20160;-74
2022/03/23 10:24:06;;;;;;;16.73;13.32;;;11.20;96.70;;;;;;5031461;28;20072;-74
2022/03/23 10:26:36;;;;;;;20.60;13.90;;;11.80;98.00;;;;;;5031379;28;20033;-74
2022/03/23 10:29:02;;;;;;;18.02;14.02;;;12.10;96.50;;;;;;5031463;28;20024;-73
2022/03/23 10:31:28;;;;;;;25.40;14.85;;;12.30;97.10;;;;;;5010329;28;20456;-74
2022/03/23 10:34:07;;;;;;;17.42;13.77;;;12.20;95.80;;;;;;5026029;28;20068;-74
2022/03/23 10:36:39;;;;;;;17.45;13.75;;;11.90;95.20;;;;;;5040240;28;20045;-74
2022/03/23 10:39:10;;;;;;;15.48;12.68;;;11.90;94.00;;;;;;5010803;28;20050;-74
2022/03/23 10:41:36;;;;;;;18.65;13.43;;;11.90;94.80;;;;;;5022781;28;20041;-74
2022/03/23 10:44:01;;;;;;;15.88;13.20;;;12.20;93.90;;;;;;5033191;28;20368;-74
2022/03/23 10:46:27;;;;;;;19.02;13.57;;;12.20;92.30;;;;;;5002458;28;20026;-74
2022/03/23 10:49:03;;;;;;;20.00;13.52;;;12.10;92.20;;;;;;5016152;28;20037;-74
2022/03/23 10:51:30;;;;;;;;;;;12.40;92.40;;;;;;5037647;28;20055;-74
2022/03/23 10:53:56;;;;;;;17.63;12.95;;;12.60;93.20;;;;;;5034957;28;19944;-74
2022/03/23 10:56:34;;;;;;;17.17;13.63;;;12.90;90.70;;;;;;5017414;28;20056;-74
2022/03/23 10:59:23;;;;;;;17.95;12.65;;;12.70;90.20;;;;;;5022676;28;20483;-74
2022/03/23 11:01:57;;;;;;;16.52;12.15;;;12.60;88.80;;;;;;5019576;28;20026;-74
2022/03/23 11:04:23;;;;;;;16.45;12.45;;;12.60;90.10;;;;;;5039279;28;20436;-74
2022/03/23 11:06:49;;;;;;;16.15;11.95;;;12.80;89.50;;;;;;5022646;28;20026;-74
2022/03/23 11:15:46;;;;;;;15.82;11.52;;;13.20;89.50;;;;;;5046183;28;20021;-74
2022/03/23 11:18:06;;;;;;;16.17;12.43;;;13.50;86.80;;;;;;5038835;28;20136;-74
2022/03/23 11:20:52;;;;;;;15.00;12.15;;;13.50;86.20;;;;;;5034346;28;20029;-74
2022/03/23 11:23:30;;;;;;;14.10;12.10;;;13.50;84.00;;;;;;5014767;28;20030;-74
2022/03/23 11:26:01;;;;;;;15.05;12.32;;;13.60;86.20;;;;;;5030546;28;20076;-72
2022/03/23 11:28:36;;;;;;;16.42;11.18;;;13.70;86.10;;;;;;5016698;28;20025;-74
2022/03/23 11:31:07;;;;;;;18.52;12.23;;;13.80;82.50;;;;;;5034219;28;20029;-75
2022/03/23 11:33:34;;;;;;;15.68;12.18;;;13.70;80.90;;;;;;5016280;28;20034;-75
2022/03/23 11:36:01;;;;;;;16.17;12.63;;;13.90;80.20;;;;;;5016585;28;20026;-74
2022/03/23 11:38:27;;;;;;;15.45;12.13;;;13.80;82.90;;;;;;5034009;28;20025;-72
2022/03/23 11:40:54;;;;;;;13.68;12.20;;;14.00;81.60;;;;;;5028722;28;20475;-72
2022/03/23 11:43:22;;;;;;;16.77;12.45;;;14.10;83.50;;;;;;5008763;28;20503;-71
2022/03/23 11:45:50;;;;;;;17.08;13.13;;;14.40;81.20;;;;;;5036000;28;20120;-76
2022/03/23 11:48:31;;;;;;;14.73;11.32;;;14.30;80.60;;;;;;5021489;28;20030;-74
2022/03/23 11:51:03;;;;;;;16.13;12.80;;;14.40;81.00;;;;;;5001268;28;20030;-72
2022/03/23 11:53:54;;;;;;;14.68;11.57;;;14.30;78.90;;;;;;5015419;28;20030;-71
2022/03/23 11:56:35;;;;;;;18.27;12.45;;;14.40;79.20;;;;;;5021180;28;20025;-73
2022/03/23 11:59:21;;;;;;;14.93;12.45;;;15.00;79.60;;;;;;5004406;28;20025;-72
2022/03/23 12:01:48;;;;;;;15.10;12.52;;;15.50;79.40;;;;;;5034111;28;20352;-74
2022/03/23 12:04:18;;;;;;;17.42;12.10;;;16.10;78.20;;;;;;5032987;28;20104;-75
2022/03/23 12:06:44;;;;;;;16.70;12.95;;;16.70;75.10;;;;;;5016012;28;20029;-74
2022/03/23 12:09:32;;;;;;;16.25;12.60;;;16.90;73.90;;;;;;5033739;28;20368;-74
2022/03/23 12:11:58;;;;;;;15.82;12.05;;;17.00;74.00;;;;;;5013931;28;20402;-74
2022/03/23 12:14:31;;;;;;;15.35;12.00;;;17.80;72.50;;;;;;5010555;28;20025;-74
2022/03/23 12:16:56;;;;;;;16.25;12.65;;;18.20;71.40;;;;;;5033588;28;20018;-73
2022/03/23 12:19:30;;;;;;;19.30;12.80;;;18.70;70.80;;;;;;5033492;28;20021;-74
2022/03/23 12:22:05;;;;;;;14.98;11.70;;;18.90;70.10;;;;;;5015659;28;20024;-74
2022/03/23 12:25:08;;;;;;;14.00;11.55;;;18.90;67.90;;;;;;5033317;28;20032;-74
2022/03/23 12:27:48;;;;;;;15.95;11.57;;;19.40;66.40;;;;;;5033236;28;20033;-74
2022/03/23 12:30:24;;;;;;;13.85;12.18;;;19.40;66.50;;;;;;5033072;28;20056;-74
2022/03/23 12:32:50;;;;;;;13.38;11.48;;;19.90;66.30;;;;;;5032376;28;20108;-74
2022/03/23 12:35:26;;;;;;;14.02;12.10;;;20.50;64.90;;;;;;5033281;28;20546;-74
2022/03/23 12:37:52;;;;;;;14.60;11.32;;;21.20;61.60;;;;;;5020935;28;20032;-74
2022/03/23 12:40:18;;;;;;;14.65;11.85;;;21.90;60.20;;;;;;5031965;28;20018;-74
2022/03/23 12:42:45;;;;;;;13.40;10.85;;;21.80;61.00;;;;;;5020707;28;20025;-74
2022/03/23 12:45:17;;;;;;;14.43;11.10;;;20.80;59.60;;;;;;5032003;28;20099;-74
2022/03/23 12:57:49;;;;;;;13.90;11.70;;;20.90;59.50;;;;;;5012038;28;20079;-74
2022/03/23 12:59:17;;;;;;;12.38;11.07;;;22.60;56.20;;;;;;5032848;28;20032;-74
2022/03/23 13:01:43;;;;;;;10.90;9.80;;;22.30;53.90;;;;;;5028498;28;20114;-74
2022/03/23 13:04:22;;;;;;;12.60;10.45;;;21.70;54.80;;;;;;5014931;28;20056;-74